createdAt,value
2018-07-27T00:00:42.770Z,25.70
2018-07-27T00:03:11.429Z,25.70
2018-07-27T00:05:40.034Z,25.70
2018-07-27T00:08:08.642Z,25.60
2018-07-27T00:13:05.600Z,25.60
2018-07-27T00:15:34.252Z,25.50
2018-07-27T00:18:02.988Z,25.50
2018-07-27T00:20:31.709Z,25.40
2018-07-27T00:23:00.438Z,25.40
2018-07-27T00:25:29.175Z,25.40
2018-07-27T00:27:57.822Z,25.30
2018-07-27T00:30:26.457Z,25.30
2018-07-27T00:32:55.083Z,25.20
2018-07-27T00:35:23.807Z,25.20
2018-07-27T00:37:52.475Z,25.10
2018-07-27T00:40:21.202Z,25.10
2018-07-27T00:42:49.821Z,25.10
2018-07-27T00:45:18.542Z,25.10
2018-07-27T00:47:47.218Z,25.10
2018-07-27T00:50:15.869Z,25.00
2018-07-27T00:52:44.477Z,25.00
2018-07-27T00:55:13.123Z,25.00
2018-07-27T00:57:41.735Z,25.00
2018-07-27T01:00:10.433Z,24.90
2018-07-27T01:02:39.093Z,25.00
2018-07-27T01:07:35.977Z,24.90
2018-07-27T01:10:04.961Z,24.90
2018-07-27T01:12:33.697Z,24.90
2018-07-27T01:15:02.419Z,24.90
2018-07-27T01:17:31.176Z,24.90
2018-07-27T01:19:59.924Z,24.90
2018-07-27T01:22:28.540Z,24.90
2018-07-27T01:24:57.201Z,24.80
2018-07-27T01:27:25.828Z,24.80
2018-07-27T01:29:54.446Z,24.80
2018-07-27T01:32:23.092Z,24.70
2018-07-27T01:34:51.759Z,24.70
2018-07-27T01:37:20.421Z,24.60
2018-07-27T01:39:49.177Z,24.50
2018-07-27T01:42:17.852Z,24.50
2018-07-27T01:44:46.502Z,24.40
2018-07-27T01:47:15.123Z,24.40
2018-07-27T01:49:43.757Z,24.40
2018-07-27T01:52:12.361Z,24.30
2018-07-27T01:57:09.201Z,24.30
2018-07-27T01:59:37.821Z,24.30
2018-07-27T02:02:06.522Z,24.20
2018-07-27T02:04:35.209Z,24.20
2018-07-27T02:07:03.949Z,24.20
2018-07-27T02:09:32.711Z,24.20
2018-07-27T02:12:01.396Z,24.20
2018-07-27T02:14:30.050Z,24.20
2018-07-27T02:16:58.733Z,24.20
2018-07-27T02:19:27.392Z,24.10
2018-07-27T02:21:56.025Z,24.00
2018-07-27T02:24:24.637Z,24.00
2018-07-27T02:26:53.254Z,24.10
2018-07-27T02:29:21.881Z,24.10
2018-07-27T02:31:50.490Z,24.10
2018-07-27T02:34:19.102Z,24.10
2018-07-27T02:36:47.781Z,24.10
2018-07-27T02:39:16.471Z,24.10
2018-07-27T02:41:45.115Z,24.10
2018-07-27T02:44:13.745Z,24.00
2018-07-27T02:46:42.337Z,24.00
2018-07-27T02:49:10.970Z,24.00
2018-07-27T02:51:39.570Z,24.00
2018-07-27T02:54:08.198Z,24.00
2018-07-27T02:59:05.161Z,24.00
2018-07-27T03:01:33.897Z,24.00
2018-07-27T03:04:02.677Z,24.00
2018-07-27T03:08:59.642Z,23.90
2018-07-27T03:11:28.294Z,23.90
2018-07-27T03:13:56.926Z,23.90
2018-07-27T03:16:25.605Z,23.90
2018-07-27T03:18:54.278Z,23.90
2018-07-27T03:21:22.897Z,23.80
2018-07-27T03:23:51.497Z,23.80
2018-07-27T03:26:20.179Z,23.80
2018-07-27T03:28:48.890Z,23.80
2018-07-27T03:31:17.549Z,23.80
2018-07-27T03:33:46.221Z,23.80
2018-07-27T03:36:14.861Z,23.70
2018-07-27T03:38:43.490Z,23.80
2018-07-27T03:41:13.106Z,23.70
2018-07-27T03:43:41.905Z,23.70
2018-07-27T03:46:10.568Z,23.70
2018-07-27T03:48:39.192Z,23.60
2018-07-27T03:51:07.804Z,23.60
2018-07-27T03:53:36.462Z,23.60
2018-07-27T03:56:05.238Z,23.60
2018-07-27T03:58:33.930Z,23.60
2018-07-27T04:01:02.726Z,23.50
2018-07-27T04:03:31.476Z,23.60
2018-07-27T04:06:00.161Z,23.60
2018-07-27T04:08:29.227Z,23.60
2018-07-27T04:10:57.886Z,23.60
2018-07-27T04:13:26.493Z,23.50
2018-07-27T04:15:55.108Z,23.60
2018-07-27T04:18:23.719Z,23.60
2018-07-27T04:20:52.357Z,23.60
2018-07-27T04:25:49.235Z,23.60
2018-07-27T04:28:17.917Z,23.50
2018-07-27T04:30:46.653Z,23.60
2018-07-27T04:33:15.322Z,23.60
2018-07-27T04:35:43.991Z,23.60
2018-07-27T04:38:12.555Z,23.60
2018-07-27T04:40:41.202Z,23.60
2018-07-27T04:43:09.838Z,23.70
2018-07-27T04:45:38.477Z,23.70
2018-07-27T04:48:07.080Z,23.70
2018-07-27T04:50:35.734Z,23.80
2018-07-27T04:53:04.457Z,23.70
2018-07-27T04:55:33.069Z,23.60
2018-07-27T04:58:01.794Z,23.60
2018-07-27T05:00:30.484Z,23.70
2018-07-27T05:02:59.125Z,23.60
2018-07-27T05:05:27.750Z,23.60
2018-07-27T05:07:56.381Z,23.70
2018-07-27T05:10:30.331Z,23.70
2018-07-27T05:12:59.014Z,23.60
2018-07-27T05:15:27.619Z,23.70
2018-07-27T05:17:56.203Z,23.70
2018-07-27T05:20:24.849Z,23.70
2018-07-27T05:22:53.466Z,23.80
2018-07-27T05:25:22.081Z,23.80
2018-07-27T05:27:50.693Z,23.80
2018-07-27T05:30:19.321Z,23.70
2018-07-27T05:32:47.949Z,23.80
2018-07-27T05:35:16.553Z,23.80
2018-07-27T05:37:45.250Z,23.90
2018-07-27T05:40:13.832Z,23.90
2018-07-27T05:42:42.477Z,23.90
2018-07-27T05:45:11.054Z,23.90
2018-07-27T05:47:39.686Z,24.00
2018-07-27T05:50:08.389Z,24.10
2018-07-27T05:52:37.036Z,24.10
2018-07-27T05:55:05.709Z,24.10
2018-07-27T05:57:34.689Z,24.20
2018-07-27T06:00:03.462Z,24.30
2018-07-27T06:02:32.194Z,24.30
2018-07-27T06:05:00.817Z,24.30
2018-07-27T06:07:29.445Z,24.40
2018-07-27T06:09:58.076Z,24.50
2018-07-27T06:12:26.725Z,24.60
2018-07-27T06:14:55.350Z,24.70
2018-07-27T06:17:23.996Z,24.80
2018-07-27T06:19:52.594Z,24.90
2018-07-27T06:22:21.284Z,24.90
2018-07-27T06:24:51.086Z,24.90
2018-07-27T06:27:20.119Z,25.10
2018-07-27T06:29:49.251Z,25.10
2018-07-27T06:32:18.429Z,25.20
2018-07-27T06:34:47.169Z,25.30
2018-07-27T06:37:15.951Z,25.40
2018-07-27T06:39:45.654Z,25.50
2018-07-27T06:42:14.986Z,25.50
2018-07-27T06:44:43.647Z,25.60
2018-07-27T06:47:12.273Z,25.80
2018-07-27T06:49:40.968Z,25.90
2018-07-27T06:52:09.710Z,26.00
2018-07-27T06:54:38.380Z,26.10
2018-07-27T06:57:07.029Z,26.30
2018-07-27T07:02:04.135Z,26.60
2018-07-27T07:04:32.733Z,26.70
2018-07-27T07:07:01.350Z,26.80
2018-07-27T07:09:29.954Z,27.00
2018-07-27T07:11:58.574Z,27.10
2018-07-27T07:14:27.256Z,27.20
2018-07-27T07:16:56.025Z,27.30
2018-07-27T07:19:24.744Z,27.40
2018-07-27T07:21:53.468Z,27.50
2018-07-27T07:24:22.169Z,27.50
2018-07-27T07:26:50.762Z,27.70
2018-07-27T07:29:19.410Z,27.80
2018-07-27T07:31:47.993Z,27.90
2018-07-27T07:34:16.597Z,28.10
2018-07-27T07:36:45.247Z,28.10
2018-07-27T07:39:13.961Z,28.20
2018-07-27T07:41:42.918Z,28.30
2018-07-27T07:44:11.629Z,28.40
2018-07-27T07:46:40.758Z,28.50
2018-07-27T07:49:09.377Z,28.60
2018-07-27T07:51:38.556Z,28.70
2018-07-27T07:54:07.245Z,28.80
2018-07-27T07:56:35.885Z,28.80
2018-07-27T07:59:04.576Z,28.80
2018-07-27T08:01:33.485Z,28.80
2018-07-27T08:04:02.091Z,28.90
2018-07-27T08:06:30.817Z,28.90
2018-07-27T08:08:59.449Z,29.00
2018-07-27T08:11:28.082Z,29.00
2018-07-27T08:13:56.694Z,29.10
2018-07-27T08:16:25.393Z,29.30
2018-07-27T08:18:54.190Z,29.50
2018-07-27T08:21:24.607Z,29.60
2018-07-27T08:23:53.543Z,29.80
2018-07-27T08:26:39.953Z,29.90
2018-07-27T08:29:10.309Z,30.00
2018-07-27T08:31:39.988Z,30.20
2018-07-27T08:34:08.654Z,30.30
2018-07-27T08:36:37.286Z,30.40
2018-07-27T08:39:09.213Z,30.50
2018-07-27T08:41:38.495Z,30.60
2018-07-27T08:44:07.653Z,30.70
2018-07-27T08:46:36.631Z,30.80
2018-07-27T08:49:05.237Z,30.90
2018-07-27T08:51:33.996Z,31.00
2018-07-27T08:54:02.822Z,31.10
2018-07-27T08:56:31.797Z,31.10
2018-07-27T08:59:00.430Z,31.20
2018-07-27T09:01:29.062Z,31.40
2018-07-27T09:03:57.777Z,31.30
2018-07-27T09:06:26.419Z,31.50
2018-07-27T09:08:55.188Z,31.60
2018-07-27T09:11:24.151Z,31.70
2018-07-27T09:13:53.452Z,31.70
2018-07-27T09:16:22.556Z,31.80
2018-07-27T09:18:51.720Z,31.80
2018-07-27T09:21:20.350Z,31.90
2018-07-27T09:23:48.978Z,32.00
2018-07-27T09:26:17.590Z,32.10
2018-07-27T09:28:46.225Z,32.10
2018-07-27T09:31:14.874Z,32.20
2018-07-27T09:33:43.491Z,32.30
2018-07-27T09:36:12.097Z,32.40
2018-07-27T09:38:40.790Z,32.50
2018-07-27T09:41:09.425Z,32.70
2018-07-27T09:43:38.067Z,32.80
2018-07-27T09:46:07.289Z,32.80
2018-07-27T09:48:35.902Z,32.90
2018-07-27T09:51:04.553Z,32.90
2018-07-27T09:53:33.269Z,33.00
2018-07-27T09:56:01.961Z,33.10
2018-07-27T09:58:30.581Z,33.20
2018-07-27T10:01:04.433Z,33.30
2018-07-27T10:03:33.066Z,33.40
2018-07-27T10:06:01.678Z,33.60
2018-07-27T10:08:30.256Z,33.70
2018-07-27T10:10:58.921Z,33.80
2018-07-27T10:13:27.626Z,33.80
2018-07-27T10:15:56.283Z,34.00
2018-07-27T10:18:24.974Z,34.00
2018-07-27T10:20:53.693Z,34.10
2018-07-27T10:23:22.348Z,34.30
2018-07-27T10:25:50.963Z,34.40
2018-07-27T10:28:19.574Z,34.40
2018-07-27T10:30:48.274Z,34.50
2018-07-27T10:33:16.859Z,34.50
2018-07-27T10:35:45.433Z,34.50
2018-07-27T10:38:14.085Z,34.60
2018-07-27T10:40:42.730Z,34.70
2018-07-27T10:43:11.428Z,34.60
2018-07-27T10:45:40.211Z,34.70
2018-07-27T10:48:08.839Z,34.70
2018-07-27T10:50:37.449Z,34.70
2018-07-27T10:53:06.091Z,34.80
2018-07-27T10:55:34.712Z,34.80
2018-07-27T10:58:03.337Z,35.00
2018-07-27T11:00:31.937Z,35.10
2018-07-27T11:03:00.579Z,35.10
2018-07-27T11:05:29.305Z,35.10
2018-07-27T11:07:57.957Z,35.20
2018-07-27T11:10:26.577Z,35.40
2018-07-27T11:12:55.241Z,35.50
2018-07-27T11:15:23.960Z,35.50
2018-07-27T11:17:52.676Z,35.60
2018-07-27T11:20:21.440Z,35.80
2018-07-27T11:22:50.050Z,35.90
2018-07-27T11:25:18.699Z,36.10
2018-07-27T11:27:47.313Z,36.20
2018-07-27T11:30:15.921Z,36.10
2018-07-27T11:32:44.531Z,36.20
2018-07-27T11:35:13.233Z,36.40
2018-07-27T11:37:41.937Z,36.40
2018-07-27T11:40:11.429Z,36.50
2018-07-27T11:42:40.159Z,36.60
2018-07-27T11:45:08.815Z,36.80
2018-07-27T11:47:37.435Z,37.00
2018-07-27T11:50:06.116Z,37.00
2018-07-27T11:52:34.701Z,37.00
2018-07-27T11:55:03.319Z,37.10
2018-07-27T11:57:31.940Z,37.10
2018-07-27T12:00:01.441Z,37.10
2018-07-27T12:02:30.049Z,37.20
2018-07-27T12:04:58.725Z,37.30
2018-07-27T12:07:27.457Z,37.40
2018-07-27T12:09:56.166Z,37.40
2018-07-27T12:12:24.902Z,37.50
2018-07-27T12:14:53.770Z,37.60
2018-07-27T12:17:22.293Z,37.50
2018-07-27T12:19:50.956Z,37.60
2018-07-27T12:22:19.572Z,37.60
2018-07-27T12:24:48.182Z,37.60
2018-07-27T12:27:16.794Z,37.70
2018-07-27T12:29:45.404Z,37.60
2018-07-27T12:32:14.164Z,37.90
2018-07-27T12:34:42.783Z,38.00
2018-07-27T12:37:11.385Z,38.20
2018-07-27T12:39:40.025Z,38.20
2018-07-27T12:42:08.778Z,38.30
2018-07-27T12:44:37.416Z,38.30
2018-07-27T12:47:06.321Z,38.50
2018-07-27T12:49:34.990Z,38.40
2018-07-27T12:52:03.694Z,38.50
2018-07-27T12:54:32.296Z,38.60
2018-07-27T12:57:00.917Z,38.60
2018-07-27T12:59:29.518Z,38.80
2018-07-27T13:01:58.109Z,38.70
2018-07-27T13:04:26.706Z,38.90
2018-07-27T13:06:55.309Z,38.90
2018-07-27T13:09:23.897Z,39.00
2018-07-27T13:11:52.473Z,39.10
2018-07-27T13:14:21.149Z,39.10
2018-07-27T13:16:49.761Z,39.10
2018-07-27T13:19:18.353Z,39.30
2018-07-27T13:21:46.957Z,39.40
2018-07-27T13:24:15.525Z,39.40
2018-07-27T13:26:44.133Z,39.40
2018-07-27T13:29:12.739Z,39.60
2018-07-27T13:34:49.967Z,39.50
2018-07-27T13:37:19.411Z,39.50
2018-07-27T13:39:49.085Z,39.60
2018-07-27T13:42:19.137Z,39.60
2018-07-27T13:44:47.844Z,39.70
2018-07-27T13:47:17.056Z,39.90
2018-07-27T13:49:45.625Z,40.00
2018-07-27T13:52:14.234Z,40.30
2018-07-27T13:54:42.845Z,40.30
2018-07-27T13:57:11.443Z,40.50
2018-07-27T13:59:40.141Z,40.50
2018-07-27T14:02:08.994Z,40.20
2018-07-27T14:04:37.668Z,40.30
2018-07-27T14:07:07.162Z,40.10
2018-07-27T14:09:35.829Z,40.20
2018-07-27T14:12:04.676Z,40.00
2018-07-27T14:14:33.377Z,40.20
2018-07-27T14:17:01.997Z,40.20
2018-07-27T14:19:30.925Z,40.20
2018-07-27T14:21:59.557Z,40.30
2018-07-27T14:24:28.159Z,40.30
2018-07-27T14:26:56.745Z,40.50
2018-07-27T14:29:25.437Z,40.40
2018-07-27T14:31:54.037Z,40.30
2018-07-27T14:34:22.704Z,40.30
2018-07-27T14:36:51.385Z,40.30
2018-07-27T14:39:20.025Z,40.00
2018-07-27T14:41:48.670Z,40.20
2018-07-27T14:44:17.270Z,40.00
2018-07-27T14:46:45.886Z,40.10
2018-07-27T14:49:15.749Z,39.80
2018-07-27T14:51:44.541Z,39.50
2018-07-27T14:54:14.140Z,39.60
2018-07-27T14:56:43.193Z,39.50
2018-07-27T14:59:12.149Z,39.60
2018-07-27T15:01:41.248Z,39.60
2018-07-27T15:04:10.591Z,39.50
2018-07-27T15:06:39.440Z,39.50
2018-07-27T15:09:11.983Z,39.50
2018-07-27T15:11:40.623Z,39.40
2018-07-27T15:14:09.366Z,39.40
2018-07-27T15:16:38.178Z,39.20
2018-07-27T15:19:06.860Z,39.10
2018-07-27T15:21:35.597Z,39.20
2018-07-27T15:24:04.609Z,39.10
2018-07-27T15:26:33.247Z,39.00
2018-07-27T15:29:01.929Z,38.80
2018-07-27T15:31:30.506Z,38.70
2018-07-27T15:33:59.127Z,38.50
2018-07-27T15:36:27.773Z,38.40
2018-07-27T15:38:56.426Z,38.30
2018-07-27T15:41:25.046Z,38.10
2018-07-27T15:43:53.653Z,38.00
2018-07-27T15:46:22.269Z,37.90
2018-07-27T15:48:50.950Z,37.70
2018-07-27T15:51:19.617Z,37.60
2018-07-27T15:53:48.290Z,37.30
2018-07-27T15:56:16.969Z,37.10
2018-07-27T15:58:45.581Z,36.90
2018-07-27T16:01:14.173Z,36.80
2018-07-27T16:03:48.388Z,36.70
2018-07-27T16:06:17.089Z,36.50
2018-07-27T16:08:45.660Z,36.50
2018-07-27T16:11:14.258Z,36.30
2018-07-27T16:13:42.845Z,36.20
2018-07-27T16:16:11.448Z,36.10
2018-07-27T16:18:40.046Z,35.90
2018-07-27T16:21:08.680Z,35.00
2018-07-27T16:23:37.345Z,33.80
2018-07-27T16:26:06.102Z,32.80
2018-07-27T16:28:34.771Z,32.00
2018-07-27T16:31:03.639Z,31.40
2018-07-27T16:33:32.263Z,31.00
2018-07-27T16:36:00.886Z,30.90
2018-07-27T16:40:57.892Z,30.60
2018-07-27T16:43:26.500Z,30.40
2018-07-27T16:45:55.151Z,30.70
2018-07-27T16:48:23.777Z,30.70
2018-07-27T16:50:52.806Z,30.80
2018-07-27T16:53:21.469Z,30.90
2018-07-27T16:55:50.125Z,31.00
2018-07-27T16:58:18.744Z,31.00
2018-07-27T17:00:47.344Z,30.90
2018-07-27T17:03:15.965Z,30.80
2018-07-27T17:05:44.540Z,30.90
2018-07-27T17:08:13.148Z,30.90
2018-07-27T17:10:41.729Z,30.90
2018-07-27T17:13:10.353Z,30.90
2018-07-27T17:15:38.989Z,31.10
2018-07-27T17:18:07.658Z,31.00
2018-07-27T17:20:36.321Z,31.10
2018-07-27T17:23:05.078Z,31.10
2018-07-27T17:25:33.836Z,31.10
2018-07-27T17:28:02.429Z,31.10
2018-07-27T17:30:31.047Z,31.00
2018-07-27T17:32:59.631Z,31.10
2018-07-27T17:35:28.252Z,31.10
2018-07-27T17:37:56.841Z,31.00
2018-07-27T17:40:25.494Z,31.00
2018-07-27T17:42:55.281Z,31.00
2018-07-27T17:45:23.931Z,30.90
2018-07-27T17:47:52.553Z,30.90
2018-07-27T17:50:21.247Z,30.90
2018-07-27T17:52:49.928Z,30.90
2018-07-27T17:55:18.537Z,30.80
2018-07-27T17:57:47.158Z,30.70
2018-07-27T18:00:15.785Z,30.70
2018-07-27T18:02:44.435Z,30.50
2018-07-27T18:05:13.096Z,30.50
2018-07-27T18:07:41.772Z,30.40
2018-07-27T18:10:10.354Z,30.30
2018-07-27T18:12:39.004Z,30.20
2018-07-27T18:15:07.750Z,30.10
2018-07-27T18:17:36.527Z,30.00
2018-07-27T18:20:07.420Z,29.90
2018-07-27T18:22:36.124Z,29.70
2018-07-27T18:25:06.726Z,29.50
2018-07-27T18:27:35.407Z,29.40
2018-07-27T18:30:04.936Z,29.30
2018-07-27T18:32:33.614Z,29.00
2018-07-27T18:35:02.322Z,28.80
2018-07-27T18:37:30.939Z,28.60
2018-07-27T18:39:59.551Z,28.40
2018-07-27T18:42:28.178Z,28.30
2018-07-27T18:44:56.813Z,28.30
2018-07-27T18:47:25.430Z,28.10
2018-07-27T18:49:54.220Z,28.00
2018-07-27T18:52:22.985Z,27.90
2018-07-27T18:54:51.692Z,27.60
2018-07-27T18:57:20.296Z,27.60
2018-07-27T18:59:48.952Z,27.50
2018-07-27T19:02:17.554Z,27.40
2018-07-27T19:04:46.175Z,27.30
2018-07-27T19:07:14.866Z,27.10
2018-07-27T19:09:43.418Z,27.00
2018-07-27T19:12:12.529Z,26.90
2018-07-27T19:14:41.115Z,26.80
2018-07-27T19:17:09.771Z,26.70
2018-07-27T19:19:38.477Z,26.70
2018-07-27T19:22:07.285Z,26.60
2018-07-27T19:24:36.153Z,26.60
2018-07-27T19:27:05.330Z,26.70
2018-07-27T19:32:02.548Z,26.70
2018-07-27T19:34:31.295Z,26.70
2018-07-27T19:36:59.953Z,26.70
2018-07-27T19:39:28.530Z,26.70
2018-07-27T19:41:57.150Z,26.70
2018-07-27T19:44:25.729Z,26.70
2018-07-27T19:46:54.381Z,26.70
2018-07-27T19:49:23.025Z,26.60
2018-07-27T19:51:51.710Z,26.60
2018-07-27T19:54:20.425Z,26.50
2018-07-27T19:56:49.057Z,26.50
2018-07-27T19:59:17.689Z,26.50
2018-07-27T20:01:46.347Z,26.50
2018-07-27T20:04:14.949Z,26.50
2018-07-27T20:06:43.658Z,26.50
2018-07-27T20:09:12.449Z,26.50
2018-07-27T20:11:41.435Z,26.60
2018-07-27T20:14:10.534Z,26.60
2018-07-27T20:16:39.544Z,26.60
2018-07-27T20:19:08.326Z,26.60
2018-07-27T20:21:37.102Z,26.60
2018-07-27T20:24:06.024Z,26.60
2018-07-27T20:26:34.970Z,26.60
2018-07-27T20:29:03.675Z,26.70
2018-07-27T20:31:32.361Z,26.60
2018-07-27T20:34:01.019Z,26.60
2018-07-27T20:36:29.679Z,26.60
2018-07-27T20:38:58.293Z,26.70
2018-07-27T20:41:26.993Z,26.70
2018-07-27T20:43:55.714Z,26.70
2018-07-27T20:46:24.281Z,26.70
2018-07-27T20:48:52.957Z,26.70
2018-07-27T20:51:21.643Z,26.70
2018-07-27T20:53:50.342Z,26.60
2018-07-27T20:56:19.025Z,26.60
2018-07-27T20:58:47.645Z,26.60
2018-07-27T21:01:16.282Z,26.60
2018-07-27T21:03:44.893Z,26.60
2018-07-27T21:06:13.527Z,26.60
2018-07-27T21:08:42.133Z,26.60
2018-07-27T21:11:10.764Z,26.70
2018-07-27T21:13:39.367Z,26.70
2018-07-27T21:16:08.150Z,26.60
2018-07-27T21:18:36.891Z,26.60
2018-07-27T21:21:05.673Z,26.50
2018-07-27T21:23:34.441Z,26.60
2018-07-27T21:26:03.135Z,26.60
2018-07-27T21:28:31.817Z,26.60
2018-07-27T21:31:00.468Z,26.70
2018-07-27T21:35:57.315Z,26.80
2018-07-27T21:38:25.957Z,26.70
2018-07-27T21:40:54.580Z,26.80
2018-07-27T21:43:23.237Z,26.80
2018-07-27T21:45:52.009Z,26.80
2018-07-27T21:48:20.670Z,26.80
2018-07-27T21:50:49.345Z,26.70
2018-07-27T21:53:17.996Z,26.70
2018-07-27T21:55:46.634Z,26.70
2018-07-27T21:58:15.294Z,26.70
2018-07-27T22:00:43.934Z,26.60
2018-07-27T22:03:12.585Z,26.60
2018-07-27T22:05:41.198Z,26.60
2018-07-27T22:08:09.842Z,26.50
2018-07-27T22:10:38.579Z,26.40
2018-07-27T22:13:07.416Z,26.40
2018-07-27T22:15:36.111Z,26.40
2018-07-27T22:18:04.901Z,26.40
2018-07-27T22:20:33.767Z,26.40
2018-07-27T22:23:02.433Z,26.30
2018-07-27T22:25:31.095Z,26.20
2018-07-27T22:27:59.758Z,26.20
2018-07-27T22:30:28.389Z,26.20
2018-07-27T22:32:57.048Z,26.20
2018-07-27T22:35:25.718Z,26.20
2018-07-27T22:37:54.341Z,26.20
2018-07-27T22:40:22.983Z,26.20
2018-07-27T22:42:52.809Z,26.10
2018-07-27T22:45:21.506Z,26.10
2018-07-27T22:47:50.192Z,26.10
2018-07-27T22:50:18.849Z,26.10
2018-07-27T22:52:47.464Z,26.00
2018-07-27T22:55:16.086Z,26.00
2018-07-27T22:57:44.765Z,25.90
2018-07-27T23:00:14.697Z,25.90
2018-07-27T23:02:43.817Z,25.90
2018-07-27T23:05:13.218Z,25.90
2018-07-27T23:07:41.940Z,25.80
2018-07-27T23:10:11.229Z,25.80
2018-07-27T23:12:40.458Z,25.80
2018-07-27T23:15:10.833Z,25.80
2018-07-27T23:17:39.601Z,25.70
2018-07-27T23:20:11.809Z,25.70
2018-07-27T23:22:40.670Z,25.70
2018-07-27T23:25:09.417Z,25.70
2018-07-27T23:27:38.190Z,25.70
2018-07-27T23:30:09.234Z,25.70
2018-07-27T23:32:37.966Z,25.60
2018-07-27T23:35:06.812Z,25.70
2018-07-27T23:37:35.714Z,25.60
2018-07-27T23:40:04.894Z,25.70
2018-07-27T23:42:33.851Z,25.60
2018-07-27T23:45:02.629Z,25.60
2018-07-27T23:47:31.273Z,25.60
2018-07-27T23:49:59.878Z,25.60
2018-07-27T23:52:28.619Z,25.60
2018-07-27T23:54:57.275Z,25.50
2018-07-27T23:57:25.937Z,25.60
2018-07-27T23:59:54.533Z,25.50
